Forest fire From: 30-03-2020 07:00 Until: 03-04-2020 13:00 warning for: Forest fire Level: Yellow info button



Nære METAR værraporter

   
ENGM - Oslo
Oppdatert: 30-03-2020 13:50
Regnbyger i området, For det meste Overskyet  
Regnbyger i området, For det meste Overskyet  
   Vind: Nord 6.7 m/s
Vind: Nord 6.7 m/s
Temperatur: 2°C
Wind Chill: -3°C
Duggpunkt: -11°C
Luftfuktighet: 38%
Barometer: 1028 hPa
Skyer: For det meste Overskyet
Sikt: More than 10 km
Detaljer skyer: Noen skyer 1463 m,
For det meste Overskyet 1920.2 m
ENGM 301150Z 01013KT 9999 VCSH FEW048 BKN063 02/M11 Q1028 NOSIG
ENTO - Sandefjord
Oppdatert: 30-03-2020 13:50
Klart  
Klart  
   Vind: Nord 5.7 m/s
Vind: Nord 5.7 m/s
Temperatur: 5°C
Wind Chill: 1°C
Duggpunkt: -10°C
Luftfuktighet: 33%
Barometer: 1029 hPa
Sikt: More than 10 km
Detaljer skyer: Klart
ENTO 301150Z 01011KT 350V080 CAVOK 05/M10 Q1029 NOSIG
ENNO - Notodden
Oppdatert: 12-03-2020 15:50
Oppdatert, se klokkeslett
Delvis skyet  
Delvis skyet  
   Vind: VEST 4.1 m/s
Vind: VEST 4.1 m/s
Temperatur: 7°C
Wind Chill: 4°C
Duggpunkt: -4°C
Luftfuktighet: 46%
Barometer: 985 hPa
Skyer: Delvis skyet
Sikt: More than 10 km
Detaljer skyer: Noen skyer 1828.8 m,
Delvis skyet 2590.8 m
ENNO 121450Z 28008KT 9999 FEW060 SCT085 07/M04 Q0985
ENRY - Rygge
Oppdatert: 30-03-2020 13:50
Klart  
Klart  
   Vind: Nord 6.7 m/s
Vind: Nord 6.7 m/s
Temperatur: 5°C
Wind Chill: 1°C
Duggpunkt: -10°C
Luftfuktighet: 33%
Barometer: 1029 hPa
Sikt: More than 10 km
Detaljer skyer: Klart
ENRY 301150Z 35013KT CAVOK 05/M10 Q1029 NOSIG
ENSN - Skien
Oppdatert: 09-11-2015 09:50
Oppdatert, se klokkeslett
Klart  
Klart  
   Vind: SSV 5.1 m/s<br />Gust to 5.1 m/s
Vind: SSV 5.1 m/s
Gust to 5.1 m/s
Temperatur: 7°C
Wind Chill: 4°C
Duggpunkt: 3°C
Luftfuktighet: 76%
Barometer: 1000 hPa
Sikt: More than 10 km
Detaljer skyer: Klart
ENSN 090850Z 20010G22KT 150V240 CAVOK 07/03 Q1000
ENFG - Fagernes
Oppdatert: 22-04-2018 10:50
Oppdatert, se klokkeslett
Klart  
Klart  
   Vind: Sør 3.6 m/s
Vind: Sør 3.6 m/s
Temperatur: 6°C
Wind Chill: 3°C
Duggpunkt: -3°C
Luftfuktighet: 53%
Barometer: 1014 hPa
Sikt: More than 10 km
Detaljer skyer: Klart
ENFG 220850Z 19007KT CAVOK 06/M03 Q1014

Script utviklet av  Saratoga-weather.org Tilpasset for tamplaten av  Weerstation Leuven

Du finner min vær info også på:

European Weather Network

European Weather Network